sensor_id;sensor_type;location;lat;lon;timestamp;P1;durP1;ratioP1;P2;durP2;ratioP2
55090;SDS011;40985;53.180;5.800;2024-01-30T00:01:41;34.20;;;27.52;;
55090;SDS011;40985;53.180;5.800;2024-01-30T00:04:07;36.80;;;27.52;;
55090;SDS011;40985;53.180;5.800;2024-01-30T00:06:32;33.53;;;26.85;;
55090;SDS011;40985;53.180;5.800;2024-01-30T00:08:58;37.53;;;28.23;;
55090;SDS011;40985;53.180;5.800;2024-01-30T00:11:23;36.10;;;26.60;;
55090;SDS011;40985;53.180;5.800;2024-01-30T00:13:51;37.20;;;29.30;;
55090;SDS011;40985;53.180;5.800;2024-01-30T00:16:23;33.47;;;26.90;;
55090;SDS011;40985;53.180;5.800;2024-01-30T00:18:50;33.97;;;27.00;;
55090;SDS011;40985;53.180;5.800;2024-01-30T00:21:16;36.92;;;27.02;;
55090;SDS011;40985;53.180;5.800;2024-01-30T00:23:43;32.55;;;26.52;;
55090;SDS011;40985;53.180;5.800;2024-01-30T00:26:08;39.20;;;27.77;;
55090;SDS011;40985;53.180;5.800;2024-01-30T00:28:34;38.78;;;27.33;;
55090;SDS011;40985;53.180;5.800;2024-01-30T00:31:00;38.70;;;28.85;;
55090;SDS011;40985;53.180;5.800;2024-01-30T00:33:26;38.95;;;29.35;;
55090;SDS011;40985;53.180;5.800;2024-01-30T00:35:51;40.60;;;30.75;;
55090;SDS011;40985;53.180;5.800;2024-01-30T00:38:17;42.25;;;31.17;;
55090;SDS011;40985;53.180;5.800;2024-01-30T00:40:43;39.88;;;30.35;;
55090;SDS011;40985;53.180;5.800;2024-01-30T00:43:08;41.13;;;30.73;;
55090;SDS011;40985;53.180;5.800;2024-01-30T00:45:34;37.03;;;29.70;;
55090;SDS011;40985;53.180;5.800;2024-01-30T00:48:00;41.10;;;30.02;;
55090;SDS011;40985;53.180;5.800;2024-01-30T00:50:26;37.25;;;28.80;;
55090;SDS011;40985;53.180;5.800;2024-01-30T00:52:51;40.55;;;30.02;;
55090;SDS011;40985;53.180;5.800;2024-01-30T00:55:17;43.72;;;30.85;;
55090;SDS011;40985;53.180;5.800;2024-01-30T00:57:43;42.00;;;31.48;;
55090;SDS011;40985;53.180;5.800;2024-01-30T01:00:08;45.70;;;30.60;;
55090;SDS011;40985;53.180;5.800;2024-01-30T01:02:35;49.00;;;33.63;;
55090;SDS011;40985;53.180;5.800;2024-01-30T01:05:01;44.47;;;30.58;;
55090;SDS011;40985;53.180;5.800;2024-01-30T01:07:27;47.92;;;32.90;;
55090;SDS011;40985;53.180;5.800;2024-01-30T01:09:52;40.85;;;30.40;;
55090;SDS011;40985;53.180;5.800;2024-01-30T01:12:18;42.42;;;33.33;;
55090;SDS011;40985;53.180;5.800;2024-01-30T01:14:44;47.70;;;32.42;;
55090;SDS011;40985;53.180;5.800;2024-01-30T01:17:10;46.83;;;33.05;;
55090;SDS011;40985;53.180;5.800;2024-01-30T01:19:36;47.40;;;34.42;;
55090;SDS011;40985;53.180;5.800;2024-01-30T01:22:01;51.20;;;34.97;;
55090;SDS011;40985;53.180;5.800;2024-01-30T01:24:28;46.97;;;33.22;;
55090;SDS011;40985;53.180;5.800;2024-01-30T01:26:56;49.10;;;35.83;;
55090;SDS011;40985;53.180;5.800;2024-01-30T01:29:23;49.58;;;36.83;;
55090;SDS011;40985;53.180;5.800;2024-01-30T01:31:53;53.95;;;36.70;;
55090;SDS011;40985;53.180;5.800;2024-01-30T01:34:22;52.47;;;36.90;;
55090;SDS011;40985;53.180;5.800;2024-01-30T01:36:49;50.90;;;35.72;;
55090;SDS011;40985;53.180;5.800;2024-01-30T01:39:15;53.78;;;35.72;;
55090;SDS011;40985;53.180;5.800;2024-01-30T01:41:41;47.47;;;34.17;;
55090;SDS011;40985;53.180;5.800;2024-01-30T01:44:07;47.00;;;35.67;;
55090;SDS011;40985;53.180;5.800;2024-01-30T01:46:33;51.55;;;36.10;;
55090;SDS011;40985;53.180;5.800;2024-01-30T01:49:00;54.88;;;38.53;;
55090;SDS011;40985;53.180;5.800;2024-01-30T01:51:30;49.40;;;35.55;;
55090;SDS011;40985;53.180;5.800;2024-01-30T01:53:58;50.35;;;35.72;;
55090;SDS011;40985;53.180;5.800;2024-01-30T01:56:26;49.63;;;36.72;;
55090;SDS011;40985;53.180;5.800;2024-01-30T01:58:54;49.97;;;36.08;;
55090;SDS011;40985;53.180;5.800;2024-01-30T02:01:21;50.40;;;36.70;;
55090;SDS011;40985;53.180;5.800;2024-01-30T02:03:48;49.17;;;35.78;;
55090;SDS011;40985;53.180;5.800;2024-01-30T02:06:14;44.90;;;35.42;;
55090;SDS011;40985;53.180;5.800;2024-01-30T02:08:41;52.17;;;35.80;;
55090;SDS011;40985;53.180;5.800;2024-01-30T02:11:07;52.90;;;38.10;;
55090;SDS011;40985;53.180;5.800;2024-01-30T02:13:35;51.13;;;35.78;;
55090;SDS011;40985;53.180;5.800;2024-01-30T02:16:01;52.03;;;36.83;;
55090;SDS011;40985;53.180;5.800;2024-01-30T02:18:27;48.58;;;35.30;;
55090;SDS011;40985;53.180;5.800;2024-01-30T02:20:53;55.67;;;38.30;;
55090;SDS011;40985;53.180;5.800;2024-01-30T02:23:21;53.80;;;35.42;;
55090;SDS011;40985;53.180;5.800;2024-01-30T02:25:49;51.97;;;36.85;;
55090;SDS011;40985;53.180;5.800;2024-01-30T02:28:18;53.28;;;37.25;;
55090;SDS011;40985;53.180;5.800;2024-01-30T02:30:45;49.33;;;35.30;;
55090;SDS011;40985;53.180;5.800;2024-01-30T02:33:11;48.42;;;35.35;;
55090;SDS011;40985;53.180;5.800;2024-01-30T02:35:37;50.53;;;36.13;;
55090;SDS011;40985;53.180;5.800;2024-01-30T02:38:03;48.50;;;36.15;;
55090;SDS011;40985;53.180;5.800;2024-01-30T02:40:29;48.67;;;34.97;;
55090;SDS011;40985;53.180;5.800;2024-01-30T02:42:56;47.83;;;35.70;;
55090;SDS011;40985;53.180;5.800;2024-01-30T02:45:23;52.95;;;37.55;;
55090;SDS011;40985;53.180;5.800;2024-01-30T02:47:48;50.63;;;37.65;;
55090;SDS011;40985;53.180;5.800;2024-01-30T02:50:14;49.20;;;35.17;;
55090;SDS011;40985;53.180;5.800;2024-01-30T02:52:40;45.88;;;34.20;;
55090;SDS011;40985;53.180;5.800;2024-01-30T02:55:06;54.63;;;36.13;;
55090;SDS011;40985;53.180;5.800;2024-01-30T02:57:32;50.20;;;35.65;;
55090;SDS011;40985;53.180;5.800;2024-01-30T02:59:57;47.88;;;33.47;;
55090;SDS011;40985;53.180;5.800;2024-01-30T03:02:23;50.53;;;35.30;;
55090;SDS011;40985;53.180;5.800;2024-01-30T03:04:49;51.25;;;35.15;;
55090;SDS011;40985;53.180;5.800;2024-01-30T03:07:15;48.45;;;34.88;;
55090;SDS011;40985;53.180;5.800;2024-01-30T03:09:41;46.47;;;33.38;;
55090;SDS011;40985;53.180;5.800;2024-01-30T03:12:08;46.28;;;33.42;;
55090;SDS011;40985;53.180;5.800;2024-01-30T03:14:34;50.28;;;34.03;;
55090;SDS011;40985;53.180;5.800;2024-01-30T03:17:00;45.65;;;33.38;;
55090;SDS011;40985;53.180;5.800;2024-01-30T03:19:25;48.50;;;31.60;;
55090;SDS011;40985;53.180;5.800;2024-01-30T03:21:51;47.40;;;33.45;;
55090;SDS011;40985;53.180;5.800;2024-01-30T03:24:17;45.30;;;33.45;;
55090;SDS011;40985;53.180;5.800;2024-01-30T03:26:43;44.95;;;31.75;;
55090;SDS011;40985;53.180;5.800;2024-01-30T03:29:09;44.17;;;32.60;;
55090;SDS011;40985;53.180;5.800;2024-01-30T03:31:35;46.05;;;32.63;;
55090;SDS011;40985;53.180;5.800;2024-01-30T03:34:00;50.45;;;35.13;;
55090;SDS011;40985;53.180;5.800;2024-01-30T03:36:27;47.17;;;31.88;;
55090;SDS011;40985;53.180;5.800;2024-01-30T03:38:53;46.72;;;31.95;;
55090;SDS011;40985;53.180;5.800;2024-01-30T03:41:18;45.92;;;31.92;;
55090;SDS011;40985;53.180;5.800;2024-01-30T03:43:44;44.05;;;31.58;;
55090;SDS011;40985;53.180;5.800;2024-01-30T03:46:11;52.17;;;31.90;;
55090;SDS011;40985;53.180;5.800;2024-01-30T03:48:37;45.15;;;31.77;;
55090;SDS011;40985;53.180;5.800;2024-01-30T03:51:03;42.15;;;31.05;;
55090;SDS011;40985;53.180;5.800;2024-01-30T03:53:29;42.72;;;31.30;;
55090;SDS011;40985;53.180;5.800;2024-01-30T03:55:55;40.10;;;31.30;;
55090;SDS011;40985;53.180;5.800;2024-01-30T03:58:20;46.58;;;32.83;;
55090;SDS011;40985;53.180;5.800;2024-01-30T04:00:46;44.40;;;31.35;;
55090;SDS011;40985;53.180;5.800;2024-01-30T04:03:12;44.00;;;32.10;;
55090;SDS011;40985;53.180;5.800;2024-01-30T04:05:39;41.92;;;31.05;;
55090;SDS011;40985;53.180;5.800;2024-01-30T04:08:05;40.95;;;31.23;;
55090;SDS011;40985;53.180;5.800;2024-01-30T04:10:31;43.05;;;30.63;;
55090;SDS011;40985;53.180;5.800;2024-01-30T04:12:56;40.13;;;29.90;;
55090;SDS011;40985;53.180;5.800;2024-01-30T04:15:22;45.05;;;32.20;;
55090;SDS011;40985;53.180;5.800;2024-01-30T04:17:48;42.63;;;31.05;;
55090;SDS011;40985;53.180;5.800;2024-01-30T04:20:16;40.55;;;30.65;;
55090;SDS011;40985;53.180;5.800;2024-01-30T04:22:45;40.72;;;29.83;;
55090;SDS011;40985;53.180;5.800;2024-01-30T04:25:12;41.92;;;30.40;;
55090;SDS011;40985;53.180;5.800;2024-01-30T04:27:38;39.35;;;28.80;;
55090;SDS011;40985;53.180;5.800;2024-01-30T04:30:04;39.05;;;29.38;;
55090;SDS011;40985;53.180;5.800;2024-01-30T04:32:31;42.45;;;29.80;;
55090;SDS011;40985;53.180;5.800;2024-01-30T04:34:57;43.10;;;29.02;;
55090;SDS011;40985;53.180;5.800;2024-01-30T04:37:23;42.53;;;30.08;;
55090;SDS011;40985;53.180;5.800;2024-01-30T04:39:49;39.67;;;29.30;;
55090;SDS011;40985;53.180;5.800;2024-01-30T04:42:16;38.47;;;29.35;;
55090;SDS011;40985;53.180;5.800;2024-01-30T04:44:42;39.47;;;28.83;;
55090;SDS011;40985;53.180;5.800;2024-01-30T04:47:07;40.33;;;29.20;;
55090;SDS011;40985;53.180;5.800;2024-01-30T04:49:35;38.58;;;27.25;;
55090;SDS011;40985;53.180;5.800;2024-01-30T04:52:00;40.10;;;29.00;;
55090;SDS011;40985;53.180;5.800;2024-01-30T04:54:26;35.90;;;26.65;;
55090;SDS011;40985;53.180;5.800;2024-01-30T04:56:52;36.15;;;27.08;;
55090;SDS011;40985;53.180;5.800;2024-01-30T04:59:18;41.60;;;27.58;;
55090;SDS011;40985;53.180;5.800;2024-01-30T05:01:43;36.45;;;26.25;;
55090;SDS011;40985;53.180;5.800;2024-01-30T05:04:09;34.42;;;25.15;;
55090;SDS011;40985;53.180;5.800;2024-01-30T05:06:35;35.10;;;26.50;;
55090;SDS011;40985;53.180;5.800;2024-01-30T05:09:01;35.55;;;26.80;;
55090;SDS011;40985;53.180;5.800;2024-01-30T05:11:26;38.47;;;25.98;;
55090;SDS011;40985;53.180;5.800;2024-01-30T05:13:52;37.03;;;26.38;;
55090;SDS011;40985;53.180;5.800;2024-01-30T05:16:17;31.85;;;25.15;;
55090;SDS011;40985;53.180;5.800;2024-01-30T05:18:43;29.75;;;23.67;;
55090;SDS011;40985;53.180;5.800;2024-01-30T05:21:10;37.10;;;27.60;;
55090;SDS011;40985;53.180;5.800;2024-01-30T05:23:36;33.58;;;24.80;;
55090;SDS011;40985;53.180;5.800;2024-01-30T05:26:01;35.10;;;24.67;;
55090;SDS011;40985;53.180;5.800;2024-01-30T05:28:29;32.25;;;24.58;;
55090;SDS011;40985;53.180;5.800;2024-01-30T05:30:55;33.33;;;25.17;;
55090;SDS011;40985;53.180;5.800;2024-01-30T05:33:21;33.13;;;24.25;;
55090;SDS011;40985;53.180;5.800;2024-01-30T05:35:47;35.95;;;25.77;;
55090;SDS011;40985;53.180;5.800;2024-01-30T05:38:13;32.28;;;23.98;;
55090;SDS011;40985;53.180;5.800;2024-01-30T05:40:40;32.45;;;23.17;;
55090;SDS011;40985;53.180;5.800;2024-01-30T05:43:06;33.65;;;24.70;;
55090;SDS011;40985;53.180;5.800;2024-01-30T05:45:33;34.60;;;24.90;;
55090;SDS011;40985;53.180;5.800;2024-01-30T05:48:00;33.17;;;24.08;;
55090;SDS011;40985;53.180;5.800;2024-01-30T05:50:26;28.10;;;22.00;;
55090;SDS011;40985;53.180;5.800;2024-01-30T05:52:52;31.45;;;23.58;;
55090;SDS011;40985;53.180;5.800;2024-01-30T05:55:18;29.55;;;23.48;;
55090;SDS011;40985;53.180;5.800;2024-01-30T05:57:43;31.25;;;23.25;;
55090;SDS011;40985;53.180;5.800;2024-01-30T06:00:09;33.63;;;23.85;;
55090;SDS011;40985;53.180;5.800;2024-01-30T06:02:35;29.60;;;22.27;;
55090;SDS011;40985;53.180;5.800;2024-01-30T06:05:01;27.17;;;21.85;;
55090;SDS011;40985;53.180;5.800;2024-01-30T06:07:27;26.88;;;22.23;;
55090;SDS011;40985;53.180;5.800;2024-01-30T06:09:53;27.98;;;21.30;;
55090;SDS011;40985;53.180;5.800;2024-01-30T06:12:19;29.00;;;22.08;;
55090;SDS011;40985;53.180;5.800;2024-01-30T06:14:45;32.30;;;22.95;;
55090;SDS011;40985;53.180;5.800;2024-01-30T06:17:10;30.27;;;23.15;;
55090;SDS011;40985;53.180;5.800;2024-01-30T06:19:37;35.38;;;23.35;;
55090;SDS011;40985;53.180;5.800;2024-01-30T06:22:04;30.17;;;21.85;;
55090;SDS011;40985;53.180;5.800;2024-01-30T06:24:30;29.48;;;22.83;;
55090;SDS011;40985;53.180;5.800;2024-01-30T06:26:56;27.80;;;22.15;;
55090;SDS011;40985;53.180;5.800;2024-01-30T06:29:21;27.63;;;21.60;;
55090;SDS011;40985;53.180;5.800;2024-01-30T06:31:49;28.48;;;21.58;;
55090;SDS011;40985;53.180;5.800;2024-01-30T06:34:15;27.98;;;21.55;;
55090;SDS011;40985;53.180;5.800;2024-01-30T06:36:41;27.02;;;20.70;;
55090;SDS011;40985;53.180;5.800;2024-01-30T06:39:07;27.75;;;21.98;;
55090;SDS011;40985;53.180;5.800;2024-01-30T06:41:33;28.95;;;21.58;;
55090;SDS011;40985;53.180;5.800;2024-01-30T06:43:58;29.10;;;21.58;;
55090;SDS011;40985;53.180;5.800;2024-01-30T06:46:24;27.30;;;20.95;;
55090;SDS011;40985;53.180;5.800;2024-01-30T06:48:50;30.38;;;21.40;;
55090;SDS011;40985;53.180;5.800;2024-01-30T06:51:16;27.70;;;20.88;;
55090;SDS011;40985;53.180;5.800;2024-01-30T06:53:41;30.98;;;21.77;;
55090;SDS011;40985;53.180;5.800;2024-01-30T06:56:07;27.77;;;21.77;;
55090;SDS011;40985;53.180;5.800;2024-01-30T06:58:33;29.67;;;21.58;;
55090;SDS011;40985;53.180;5.800;2024-01-30T07:00:58;25.75;;;20.52;;
55090;SDS011;40985;53.180;5.800;2024-01-30T07:03:24;28.58;;;21.40;;
55090;SDS011;40985;53.180;5.800;2024-01-30T07:05:50;25.50;;;20.30;;
55090;SDS011;40985;53.180;5.800;2024-01-30T07:08:16;33.08;;;20.92;;
55090;SDS011;40985;53.180;5.800;2024-01-30T07:10:45;27.67;;;20.85;;
55090;SDS011;40985;53.180;5.800;2024-01-30T07:13:12;27.10;;;21.02;;
55090;SDS011;40985;53.180;5.800;2024-01-30T07:15:38;27.77;;;21.17;;
55090;SDS011;40985;53.180;5.800;2024-01-30T07:18:04;31.23;;;20.92;;
55090;SDS011;40985;53.180;5.800;2024-01-30T07:20:30;28.83;;;20.10;;
55090;SDS011;40985;53.180;5.800;2024-01-30T07:23:00;24.83;;;21.05;;
55090;SDS011;40985;53.180;5.800;2024-01-30T07:25:26;27.92;;;19.58;;
55090;SDS011;40985;53.180;5.800;2024-01-30T07:27:55;25.83;;;20.42;;
55090;SDS011;40985;53.180;5.800;2024-01-30T07:30:23;27.75;;;20.05;;
55090;SDS011;40985;53.180;5.800;2024-01-30T07:32:49;25.38;;;19.83;;
55090;SDS011;40985;53.180;5.800;2024-01-30T07:35:15;26.05;;;20.48;;
55090;SDS011;40985;53.180;5.800;2024-01-30T07:37:40;24.50;;;20.13;;
55090;SDS011;40985;53.180;5.800;2024-01-30T07:40:06;25.48;;;18.27;;
55090;SDS011;40985;53.180;5.800;2024-01-30T07:42:32;24.85;;;19.58;;
55090;SDS011;40985;53.180;5.800;2024-01-30T07:44:59;26.80;;;19.52;;
55090;SDS011;40985;53.180;5.800;2024-01-30T07:47:25;25.00;;;19.30;;
55090;SDS011;40985;53.180;5.800;2024-01-30T07:49:51;24.25;;;18.63;;
55090;SDS011;40985;53.180;5.800;2024-01-30T07:52:17;24.33;;;18.98;;
55090;SDS011;40985;53.180;5.800;2024-01-30T07:54:50;24.20;;;18.13;;
55090;SDS011;40985;53.180;5.800;2024-01-30T07:57:16;24.33;;;19.23;;
55090;SDS011;40985;53.180;5.800;2024-01-30T07:59:43;26.83;;;18.63;;
55090;SDS011;40985;53.180;5.800;2024-01-30T08:02:09;25.73;;;19.50;;
55090;SDS011;40985;53.180;5.800;2024-01-30T08:04:35;25.75;;;19.17;;
55090;SDS011;40985;53.180;5.800;2024-01-30T08:07:01;26.75;;;18.92;;
55090;SDS011;40985;53.180;5.800;2024-01-30T08:09:27;26.90;;;18.42;;
55090;SDS011;40985;53.180;5.800;2024-01-30T08:11:53;22.35;;;18.10;;
55090;SDS011;40985;53.180;5.800;2024-01-30T08:14:18;24.95;;;18.85;;
55090;SDS011;40985;53.180;5.800;2024-01-30T08:16:44;25.98;;;17.88;;
55090;SDS011;40985;53.180;5.800;2024-01-30T08:19:09;27.17;;;18.15;;
55090;SDS011;40985;53.180;5.800;2024-01-30T08:21:35;31.08;;;18.23;;
55090;SDS011;40985;53.180;5.800;2024-01-30T08:24:04;25.90;;;16.95;;
55090;SDS011;40985;53.180;5.800;2024-01-30T08:26:30;24.17;;;17.20;;
55090;SDS011;40985;53.180;5.800;2024-01-30T08:28:59;24.83;;;17.08;;
55090;SDS011;40985;53.180;5.800;2024-01-30T08:31:24;23.98;;;16.88;;
55090;SDS011;40985;53.180;5.800;2024-01-30T08:33:50;25.88;;;17.17;;
55090;SDS011;40985;53.180;5.800;2024-01-30T08:36:16;26.58;;;16.95;;
55090;SDS011;40985;53.180;5.800;2024-01-30T08:38:42;24.17;;;16.27;;
55090;SDS011;40985;53.180;5.800;2024-01-30T08:41:08;28.08;;;16.75;;
55090;SDS011;40985;53.180;5.800;2024-01-30T08:43:34;21.42;;;15.07;;
55090;SDS011;40985;53.180;5.800;2024-01-30T08:46:01;23.13;;;15.63;;
55090;SDS011;40985;53.180;5.800;2024-01-30T08:48:27;25.08;;;16.42;;
55090;SDS011;40985;53.180;5.800;2024-01-30T08:50:53;23.52;;;15.77;;
55090;SDS011;40985;53.180;5.800;2024-01-30T08:53:18;19.63;;;14.95;;
55090;SDS011;40985;53.180;5.800;2024-01-30T08:55:44;24.27;;;14.27;;
55090;SDS011;40985;53.180;5.800;2024-01-30T08:58:10;22.50;;;14.27;;
55090;SDS011;40985;53.180;5.800;2024-01-30T09:00:36;21.83;;;14.55;;
55090;SDS011;40985;53.180;5.800;2024-01-30T09:03:02;23.00;;;13.38;;
55090;SDS011;40985;53.180;5.800;2024-01-30T09:05:28;18.20;;;13.23;;
55090;SDS011;40985;53.180;5.800;2024-01-30T09:07:54;18.48;;;13.65;;
55090;SDS011;40985;53.180;5.800;2024-01-30T09:10:20;19.50;;;13.23;;
55090;SDS011;40985;53.180;5.800;2024-01-30T09:12:46;21.75;;;14.27;;
55090;SDS011;40985;53.180;5.800;2024-01-30T09:15:12;20.63;;;14.32;;
55090;SDS011;40985;53.180;5.800;2024-01-30T09:17:38;18.85;;;13.45;;
55090;SDS011;40985;53.180;5.800;2024-01-30T09:20:04;20.58;;;12.52;;
55090;SDS011;40985;53.180;5.800;2024-01-30T09:22:30;21.58;;;13.18;;
55090;SDS011;40985;53.180;5.800;2024-01-30T09:24:56;18.40;;;13.30;;
55090;SDS011;40985;53.180;5.800;2024-01-30T09:27:22;17.92;;;14.18;;
55090;SDS011;40985;53.180;5.800;2024-01-30T09:29:48;18.83;;;14.05;;
55090;SDS011;40985;53.180;5.800;2024-01-30T09:32:14;19.42;;;13.45;;
55090;SDS011;40985;53.180;5.800;2024-01-30T09:34:40;17.35;;;13.02;;
55090;SDS011;40985;53.180;5.800;2024-01-30T09:37:07;20.67;;;14.23;;
55090;SDS011;40985;53.180;5.800;2024-01-30T09:39:33;19.30;;;13.95;;
55090;SDS011;40985;53.180;5.800;2024-01-30T09:42:05;22.58;;;14.13;;
55090;SDS011;40985;53.180;5.800;2024-01-30T09:44:32;17.90;;;12.80;;
55090;SDS011;40985;53.180;5.800;2024-01-30T09:47:01;16.75;;;13.73;;
55090;SDS011;40985;53.180;5.800;2024-01-30T09:49:34;19.60;;;12.43;;
55090;SDS011;40985;53.180;5.800;2024-01-30T09:52:01;18.77;;;13.00;;
55090;SDS011;40985;53.180;5.800;2024-01-30T09:54:30;18.90;;;11.43;;
55090;SDS011;40985;53.180;5.800;2024-01-30T09:56:57;15.15;;;12.35;;
55090;SDS011;40985;53.180;5.800;2024-01-30T09:59:25;17.73;;;12.52;;
55090;SDS011;40985;53.180;5.800;2024-01-30T10:01:51;17.13;;;12.05;;
55090;SDS011;40985;53.180;5.800;2024-01-30T10:04:17;20.10;;;11.98;;
55090;SDS011;40985;53.180;5.800;2024-01-30T10:06:43;18.20;;;11.23;;
55090;SDS011;40985;53.180;5.800;2024-01-30T10:09:09;14.95;;;10.88;;
55090;SDS011;40985;53.180;5.800;2024-01-30T10:11:36;17.45;;;11.00;;
55090;SDS011;40985;53.180;5.800;2024-01-30T10:14:02;14.20;;;9.77;;
55090;SDS011;40985;53.180;5.800;2024-01-30T10:16:28;17.92;;;10.30;;
55090;SDS011;40985;53.180;5.800;2024-01-30T10:18:53;13.90;;;9.23;;
55090;SDS011;40985;53.180;5.800;2024-01-30T10:21:19;16.00;;;9.80;;
55090;SDS011;40985;53.180;5.800;2024-01-30T10:23:45;17.42;;;9.63;;
55090;SDS011;40985;53.180;5.800;2024-01-30T10:26:11;15.80;;;9.05;;
55090;SDS011;40985;53.180;5.800;2024-01-30T10:28:37;16.77;;;7.72;;
55090;SDS011;40985;53.180;5.800;2024-01-30T10:31:02;16.23;;;7.45;;
55090;SDS011;40985;53.180;5.800;2024-01-30T10:33:32;15.35;;;6.35;;
55090;SDS011;40985;53.180;5.800;2024-01-30T10:36:00;18.77;;;5.70;;
55090;SDS011;40985;53.180;5.800;2024-01-30T10:38:28;15.43;;;5.03;;
55090;SDS011;40985;53.180;5.800;2024-01-30T10:40:59;16.85;;;5.57;;
55090;SDS011;40985;53.180;5.800;2024-01-30T10:43:33;16.88;;;5.38;;
55090;SDS011;40985;53.180;5.800;2024-01-30T10:46:04;18.02;;;4.15;;
55090;SDS011;40985;53.180;5.800;2024-01-30T10:48:43;17.30;;;4.75;;
55090;SDS011;40985;53.180;5.800;2024-01-30T10:51:12;9.93;;;2.63;;
55090;SDS011;40985;53.180;5.800;2024-01-30T10:53:39;11.55;;;1.65;;
55090;SDS011;40985;53.180;5.800;2024-01-30T10:56:06;11.27;;;1.95;;
55090;SDS011;40985;53.180;5.800;2024-01-30T10:58:33;5.47;;;0.75;;
55090;SDS011;40985;53.180;5.800;2024-01-30T11:00:59;10.57;;;1.38;;
55090;SDS011;40985;53.180;5.800;2024-01-30T11:03:25;7.38;;;0.65;;
55090;SDS011;40985;53.180;5.800;2024-01-30T11:05:51;5.32;;;0.60;;
55090;SDS011;40985;53.180;5.800;2024-01-30T11:08:26;6.38;;;0.90;;
55090;SDS011;40985;53.180;5.800;2024-01-30T11:10:56;3.70;;;0.55;;
55090;SDS011;40985;53.180;5.800;2024-01-30T11:13:27;8.82;;;0.85;;
55090;SDS011;40985;53.180;5.800;2024-01-30T11:15:54;4.70;;;0.68;;
55090;SDS011;40985;53.180;5.800;2024-01-30T11:18:25;3.80;;;0.55;;
55090;SDS011;40985;53.180;5.800;2024-01-30T11:20:55;10.45;;;0.68;;
55090;SDS011;40985;53.180;5.800;2024-01-30T11:23:22;7.90;;;0.80;;
55090;SDS011;40985;53.180;5.800;2024-01-30T11:25:48;10.45;;;1.75;;
55090;SDS011;40985;53.180;5.800;2024-01-30T11:28:14;3.72;;;0.47;;
55090;SDS011;40985;53.180;5.800;2024-01-30T11:30:41;6.93;;;0.60;;
55090;SDS011;40985;53.180;5.800;2024-01-30T11:33:08;4.03;;;0.50;;
55090;SDS011;40985;53.180;5.800;2024-01-30T11:35:37;9.45;;;1.00;;
55090;SDS011;40985;53.180;5.800;2024-01-30T11:38:06;7.70;;;1.13;;
55090;SDS011;40985;53.180;5.800;2024-01-30T11:40:34;7.55;;;0.70;;
55090;SDS011;40985;53.180;5.800;2024-01-30T11:43:01;9.73;;;1.40;;
55090;SDS011;40985;53.180;5.800;2024-01-30T11:45:27;8.63;;;1.23;;
55090;SDS011;40985;53.180;5.800;2024-01-30T11:47:54;8.20;;;1.83;;
55090;SDS011;40985;53.180;5.800;2024-01-30T11:50:20;10.15;;;1.20;;
55090;SDS011;40985;53.180;5.800;2024-01-30T11:52:47;7.80;;;1.08;;
55090;SDS011;40985;53.180;5.800;2024-01-30T11:55:13;10.55;;;1.70;;
55090;SDS011;40985;53.180;5.800;2024-01-30T11:57:40;8.70;;;1.05;;
55090;SDS011;40985;53.180;5.800;2024-01-30T12:00:06;8.75;;;1.02;;
55090;SDS011;40985;53.180;5.800;2024-01-30T12:05:05;6.85;;;0.75;;
55090;SDS011;40985;53.180;5.800;2024-01-30T12:07:31;6.18;;;0.85;;
55090;SDS011;40985;53.180;5.800;2024-01-30T12:10:01;10.95;;;0.80;;
55090;SDS011;40985;53.180;5.800;2024-01-30T12:12:28;7.65;;;0.93;;
55090;SDS011;40985;53.180;5.800;2024-01-30T12:14:55;5.40;;;0.60;;
55090;SDS011;40985;53.180;5.800;2024-01-30T12:17:31;8.50;;;0.80;;
55090;SDS011;40985;53.180;5.800;2024-01-30T12:22:35;7.55;;;0.70;;
55090;SDS011;40985;53.180;5.800;2024-01-30T12:25:04;8.85;;;0.88;;
55090;SDS011;40985;53.180;5.800;2024-01-30T12:27:33;11.07;;;1.00;;
55090;SDS011;40985;53.180;5.800;2024-01-30T12:29:59;9.95;;;1.25;;
55090;SDS011;40985;53.180;5.800;2024-01-30T12:32:25;8.25;;;1.45;;
55090;SDS011;40985;53.180;5.800;2024-01-30T12:34:55;5.80;;;0.68;;
55090;SDS011;40985;53.180;5.800;2024-01-30T12:37:22;5.88;;;1.00;;
55090;SDS011;40985;53.180;5.800;2024-01-30T12:39:49;7.07;;;0.90;;
55090;SDS011;40985;53.180;5.800;2024-01-30T12:42:19;6.75;;;1.17;;
55090;SDS011;40985;53.180;5.800;2024-01-30T12:44:46;10.02;;;1.25;;
55090;SDS011;40985;53.180;5.800;2024-01-30T12:47:12;5.63;;;1.05;;
55090;SDS011;40985;53.180;5.800;2024-01-30T12:49:41;7.20;;;1.25;;
55090;SDS011;40985;53.180;5.800;2024-01-30T12:52:10;6.85;;;0.60;;
55090;SDS011;40985;53.180;5.800;2024-01-30T12:54:37;5.97;;;1.55;;
55090;SDS011;40985;53.180;5.800;2024-01-30T12:57:03;8.52;;;1.50;;
55090;SDS011;40985;53.180;5.800;2024-01-30T12:59:30;6.47;;;1.02;;
55090;SDS011;40985;53.180;5.800;2024-01-30T13:01:55;6.78;;;1.02;;
55090;SDS011;40985;53.180;5.800;2024-01-30T13:04:22;8.77;;;1.13;;
55090;SDS011;40985;53.180;5.800;2024-01-30T13:06:48;8.27;;;1.27;;
55090;SDS011;40985;53.180;5.800;2024-01-30T13:09:14;4.05;;;0.80;;
55090;SDS011;40985;53.180;5.800;2024-01-30T13:11:40;10.15;;;1.00;;
55090;SDS011;40985;53.180;5.800;2024-01-30T13:14:06;4.95;;;1.02;;
55090;SDS011;40985;53.180;5.800;2024-01-30T13:16:32;3.45;;;0.63;;
55090;SDS011;40985;53.180;5.800;2024-01-30T13:18:58;4.30;;;0.70;;
55090;SDS011;40985;53.180;5.800;2024-01-30T13:21:23;5.82;;;1.10;;
55090;SDS011;40985;53.180;5.800;2024-01-30T13:23:49;4.43;;;0.98;;
55090;SDS011;40985;53.180;5.800;2024-01-30T13:26:18;6.55;;;1.45;;
55090;SDS011;40985;53.180;5.800;2024-01-30T13:28:44;5.93;;;1.27;;
55090;SDS011;40985;53.180;5.800;2024-01-30T13:31:09;7.63;;;1.85;;
55090;SDS011;40985;53.180;5.800;2024-01-30T13:33:35;9.38;;;2.42;;
55090;SDS011;40985;53.180;5.800;2024-01-30T13:36:01;6.72;;;2.50;;
55090;SDS011;40985;53.180;5.800;2024-01-30T13:38:27;9.88;;;3.13;;
55090;SDS011;40985;53.180;5.800;2024-01-30T13:40:52;11.25;;;3.22;;
55090;SDS011;40985;53.180;5.800;2024-01-30T13:43:18;10.20;;;3.35;;
55090;SDS011;40985;53.180;5.800;2024-01-30T13:45:44;10.38;;;2.45;;
55090;SDS011;40985;53.180;5.800;2024-01-30T13:48:11;8.18;;;2.67;;
55090;SDS011;40985;53.180;5.800;2024-01-30T13:50:37;8.68;;;2.63;;
55090;SDS011;40985;53.180;5.800;2024-01-30T13:53:02;11.70;;;2.83;;
55090;SDS011;40985;53.180;5.800;2024-01-30T13:55:29;10.88;;;2.03;;
55090;SDS011;40985;53.180;5.800;2024-01-30T13:57:55;9.70;;;2.35;;
55090;SDS011;40985;53.180;5.800;2024-01-30T14:00:21;8.45;;;2.25;;
55090;SDS011;40985;53.180;5.800;2024-01-30T14:02:48;10.95;;;2.78;;
55090;SDS011;40985;53.180;5.800;2024-01-30T14:05:13;9.40;;;2.92;;
55090;SDS011;40985;53.180;5.800;2024-01-30T14:07:40;7.30;;;2.28;;
55090;SDS011;40985;53.180;5.800;2024-01-30T14:10:09;5.78;;;1.70;;
55090;SDS011;40985;53.180;5.800;2024-01-30T14:12:36;6.05;;;1.52;;
55090;SDS011;40985;53.180;5.800;2024-01-30T14:15:02;4.28;;;1.10;;
55090;SDS011;40985;53.180;5.800;2024-01-30T14:17:27;7.25;;;1.30;;
55090;SDS011;40985;53.180;5.800;2024-01-30T14:19:53;8.75;;;1.65;;
55090;SDS011;40985;53.180;5.800;2024-01-30T14:22:19;8.88;;;1.30;;
55090;SDS011;40985;53.180;5.800;2024-01-30T14:24:44;7.82;;;1.58;;
55090;SDS011;40985;53.180;5.800;2024-01-30T14:27:10;7.97;;;1.50;;
55090;SDS011;40985;53.180;5.800;2024-01-30T14:29:37;6.32;;;1.75;;